createdAt,value
2023-04-16T00:03:00.232Z,100.00
2023-04-16T00:07:01.884Z,100.00
2023-04-16T00:11:03.429Z,100.00
2023-04-16T00:15:05.454Z,100.00
2023-04-16T00:19:07.081Z,100.00
2023-04-16T00:23:08.558Z,100.00
2023-04-16T00:27:09.938Z,100.00
2023-04-16T00:31:11.384Z,100.00
2023-04-16T00:35:12.760Z,100.00
2023-04-16T00:39:14.225Z,100.00
2023-04-16T00:43:24.813Z,100.00
2023-04-16T00:47:27.968Z,100.00
2023-04-16T00:51:29.734Z,100.00
2023-04-16T00:55:31.307Z,100.00
2023-04-16T00:59:32.853Z,100.00
2023-04-16T01:03:44.842Z,100.00
2023-04-16T01:07:46.402Z,100.00
2023-04-16T01:11:47.819Z,100.00
2023-04-16T01:15:49.396Z,100.00
2023-04-16T01:19:50.871Z,100.00
2023-04-16T01:23:52.265Z,100.00
2023-04-16T01:27:54.822Z,100.00
2023-04-16T01:31:56.258Z,100.00
2023-04-16T01:36:01.691Z,100.00
2023-04-16T01:40:03.323Z,100.00
2023-04-16T01:44:04.856Z,100.00
2023-04-16T01:48:06.738Z,100.00
2023-04-16T01:52:08.628Z,100.00
2023-04-16T01:56:10.121Z,100.00
2023-04-16T02:00:11.707Z,100.00
2023-04-16T02:04:21.976Z,100.00
2023-04-16T02:08:23.720Z,100.00
2023-04-16T02:12:26.144Z,100.00
2023-04-16T02:16:27.621Z,100.00
2023-04-16T02:20:43.705Z,100.00
2023-04-16T02:24:45.401Z,100.00
2023-04-16T02:28:46.790Z,100.00
2023-04-16T02:32:49.617Z,100.00
2023-04-16T02:36:51.935Z,100.00
2023-04-16T02:40:53.349Z,100.00
2023-04-16T02:44:54.705Z,100.00
2023-04-16T02:48:56.111Z,100.00
2023-04-16T02:52:57.486Z,100.00
2023-04-16T02:57:48.324Z,100.00
2023-04-16T03:02:47.686Z,100.00
2023-04-16T03:07:05.674Z,100.00
2023-04-16T03:11:41.083Z,100.00
2023-04-16T03:15:50.862Z,100.00
2023-04-16T03:20:53.760Z,100.00
2023-04-16T03:25:59.058Z,100.00
2023-04-16T03:30:16.451Z,100.00
2023-04-16T03:34:18.113Z,100.00
2023-04-16T03:38:20.376Z,100.00
2023-04-16T03:42:21.927Z,100.00
2023-04-16T03:46:23.368Z,100.00
2023-04-16T03:50:25.329Z,100.00
2023-04-16T03:54:26.902Z,100.00
2023-04-16T03:58:40.171Z,100.00
2023-04-16T04:02:43.131Z,100.00
2023-04-16T04:06:51.760Z,100.00
2023-04-16T04:10:53.235Z,100.00
2023-04-16T04:14:57.962Z,100.00
2023-04-16T04:19:00.288Z,100.00
2023-04-16T04:23:01.880Z,100.00
2023-04-16T04:27:03.711Z,100.00
2023-04-16T04:31:06.927Z,100.00
2023-04-16T04:35:08.825Z,100.00
2023-04-16T04:39:10.624Z,100.00
2023-04-16T04:43:12.424Z,100.00
2023-04-16T04:47:14.913Z,100.00
2023-04-16T04:51:16.378Z,100.00
2023-04-16T04:55:20.447Z,100.00
2023-04-16T04:59:22.884Z,100.00
2023-04-16T05:03:24.501Z,100.00
2023-04-16T05:07:26.103Z,100.00
2023-04-16T05:11:27.506Z,100.00
2023-04-16T05:15:29.094Z,100.00
2023-04-16T05:19:30.577Z,100.00
2023-04-16T05:23:32.001Z,100.00
2023-04-16T05:27:33.424Z,100.00
2023-04-16T05:31:34.813Z,100.00
2023-04-16T05:35:36.191Z,100.00
2023-04-16T05:39:37.589Z,100.00
2023-04-16T05:43:38.989Z,100.00
2023-04-16T05:47:40.530Z,100.00
2023-04-16T05:51:41.959Z,100.00
2023-04-16T05:55:43.481Z,100.00
2023-04-16T05:59:54.060Z,100.00
2023-04-16T06:04:03.334Z,100.00
2023-04-16T06:08:04.901Z,100.00
2023-04-16T06:12:06.302Z,100.00
2023-04-16T06:16:07.749Z,100.00
2023-04-16T06:20:09.743Z,100.00
2023-04-16T06:24:11.181Z,100.00
2023-04-16T06:28:12.593Z,100.00
2023-04-16T06:32:14.098Z,100.00
2023-04-16T06:47:47.932Z,100.00
2023-04-16T07:03:01.416Z,100.00
2023-04-16T07:07:18.342Z,100.00
2023-04-16T07:11:41.258Z,100.00
2023-04-16T07:20:12.281Z,100.00
2023-04-16T07:24:36.407Z,100.00
2023-04-16T07:29:07.561Z,100.00
2023-04-16T07:33:21.121Z,100.00
2023-04-16T07:37:26.106Z,100.00
2023-04-16T07:41:29.433Z,100.00
2023-04-16T07:45:30.847Z,100.00
2023-04-16T07:49:32.220Z,100.00
2023-04-16T07:53:33.641Z,100.00
2023-04-16T07:57:35.249Z,100.00
2023-04-16T08:01:36.640Z,100.00
2023-04-16T08:05:38.026Z,100.00
2023-04-16T08:09:53.800Z,99.11
2023-04-16T08:13:55.341Z,100.00
2023-04-16T08:17:56.799Z,100.00
2023-04-16T08:21:58.220Z,100.00
2023-04-16T08:26:01.087Z,100.00
2023-04-16T08:30:02.517Z,97.28
2023-04-16T08:34:03.928Z,96.48
2023-04-16T08:38:07.321Z,97.70
2023-04-16T08:42:30.350Z,100.00
2023-04-16T08:46:36.520Z,100.00
2023-04-16T08:50:38.737Z,100.00
2023-04-16T08:55:01.252Z,100.00
2023-04-16T08:59:05.500Z,98.80
2023-04-16T09:03:09.119Z,100.00
2023-04-16T09:07:11.359Z,99.73
2023-04-16T09:11:18.300Z,100.00
2023-04-16T09:15:20.928Z,90.50
2023-04-16T09:19:23.515Z,86.48
2023-04-16T09:23:25.476Z,84.40
2023-04-16T09:27:27.736Z,84.29
2023-04-16T09:31:30.172Z,85.79
2023-04-16T09:35:53.434Z,88.81
2023-04-16T09:40:00.778Z,84.37
2023-04-16T09:44:04.501Z,78.45
2023-04-16T09:48:06.776Z,80.86
2023-04-16T09:52:15.856Z,81.08
2023-04-16T09:56:17.464Z,86.89
2023-04-16T10:00:19.469Z,83.55
2023-04-16T10:04:22.412Z,78.85
2023-04-16T10:08:24.025Z,88.48
2023-04-16T10:12:25.745Z,83.42
2023-04-16T10:16:28.079Z,77.13
2023-04-16T10:20:32.450Z,80.02
2023-04-16T10:24:35.725Z,77.64
2023-04-16T10:28:37.446Z,74.18
2023-04-16T10:32:39.693Z,73.15
2023-04-16T10:36:41.503Z,74.75
2023-04-16T10:40:45.243Z,78.00
2023-04-16T10:44:47.110Z,73.67
2023-04-16T10:48:52.623Z,78.88
2023-04-16T10:53:17.969Z,80.24
2023-04-16T10:57:20.686Z,74.47
2023-04-16T11:01:41.044Z,71.71
2023-04-16T11:05:47.020Z,78.33
2023-04-16T11:10:05.180Z,69.84
2023-04-16T11:14:09.229Z,72.83
2023-04-16T11:18:10.847Z,75.73
2023-04-16T11:22:15.248Z,67.64
2023-04-16T11:26:27.797Z,78.31
2023-04-16T11:30:31.171Z,77.77
2023-04-16T11:34:33.050Z,67.66
2023-04-16T11:38:36.997Z,70.07
2023-04-16T11:42:42.750Z,65.30
2023-04-16T11:46:44.314Z,67.58
2023-04-16T11:50:56.103Z,73.26
2023-04-16T11:54:58.218Z,69.07
2023-04-16T11:59:10.583Z,67.03
2023-04-16T12:03:12.601Z,67.59
2023-04-16T12:07:14.384Z,69.13
2023-04-16T12:11:15.972Z,68.11
2023-04-16T12:15:17.407Z,65.17
2023-04-16T12:19:18.876Z,67.25
2023-04-16T12:23:30.893Z,71.65
2023-04-16T12:27:51.341Z,71.87
2023-04-16T12:31:54.564Z,73.83
2023-04-16T12:35:56.213Z,70.23
2023-04-16T12:39:57.572Z,71.73
2023-04-16T12:44:06.991Z,71.72
2023-04-16T12:48:08.435Z,68.38
2023-04-16T12:52:09.997Z,66.96
2023-04-16T12:56:11.425Z,65.27
2023-04-16T13:00:16.717Z,68.65
2023-04-16T13:04:19.595Z,66.72
2023-04-16T13:08:23.992Z,63.01
2023-04-16T13:12:27.966Z,62.49
2023-04-16T13:16:29.409Z,63.17
2023-04-16T13:20:31.008Z,59.08
2023-04-16T13:24:33.220Z,61.32
2023-04-16T13:28:36.119Z,66.26
2023-04-16T13:32:40.889Z,63.80
2023-04-16T13:36:45.261Z,64.41
2023-04-16T13:40:48.600Z,66.75
2023-04-16T13:44:54.304Z,67.82
2023-04-16T13:48:56.347Z,60.87
2023-04-16T13:52:59.650Z,63.55
2023-04-16T13:57:01.529Z,65.93
2023-04-16T14:01:04.279Z,61.86
2023-04-16T14:05:07.512Z,59.80
2023-04-16T14:09:11.300Z,61.25
2023-04-16T14:13:16.296Z,61.66
2023-04-16T14:17:17.713Z,61.49
2023-04-16T14:21:19.164Z,57.81
2023-04-16T14:25:20.630Z,61.57
2023-04-16T14:29:21.970Z,64.76
2023-04-16T14:33:23.706Z,61.23
2023-04-16T14:37:26.231Z,62.61
2023-04-16T14:41:27.940Z,62.12
2023-04-16T14:45:30.825Z,62.99
2023-04-16T14:49:32.330Z,62.76
2023-04-16T14:53:34.388Z,63.81
2023-04-16T14:57:35.914Z,63.29
2023-04-16T15:01:39.774Z,72.38
2023-04-16T15:05:41.354Z,72.71
2023-04-16T15:09:42.805Z,74.88
2023-04-16T15:13:44.278Z,74.26
2023-04-16T15:17:45.810Z,68.29
2023-04-16T15:21:48.824Z,67.81
2023-04-16T15:25:50.456Z,66.50
2023-04-16T15:29:53.815Z,65.76
2023-04-16T15:33:56.085Z,65.84
2023-04-16T15:37:57.483Z,65.56
2023-04-16T15:42:01.542Z,63.29
2023-04-16T15:46:04.645Z,57.79
2023-04-16T15:50:06.591Z,59.08
2023-04-16T15:54:08.349Z,58.83
2023-04-16T15:58:09.838Z,59.48
2023-04-16T16:02:11.314Z,59.75
2023-04-16T16:06:12.827Z,59.47
2023-04-16T16:10:14.222Z,61.73
2023-04-16T16:14:18.572Z,62.61
2023-04-16T16:18:21.974Z,60.72
2023-04-16T16:22:23.754Z,63.75
2023-04-16T16:26:25.239Z,69.11
2023-04-16T16:30:27.118Z,69.78
2023-04-16T16:34:28.559Z,70.36
2023-04-16T16:38:30.028Z,72.32
2023-04-16T16:42:31.666Z,78.27
2023-04-16T16:46:33.141Z,76.95
2023-04-16T16:50:34.553Z,77.67
2023-04-16T16:54:36.030Z,76.31
2023-04-16T16:58:37.504Z,74.60
2023-04-16T17:02:39.070Z,76.24
2023-04-16T17:06:40.720Z,75.68
2023-04-16T17:10:44.517Z,75.00
2023-04-16T17:14:50.114Z,75.93
2023-04-16T17:18:51.520Z,78.05
2023-04-16T17:22:53.071Z,77.17
2023-04-16T17:26:54.466Z,78.64
2023-04-16T17:30:56.923Z,79.91
2023-04-16T17:34:59.694Z,80.03
2023-04-16T17:39:02.239Z,78.15
2023-04-16T17:43:04.223Z,84.28
2023-04-16T17:47:05.714Z,85.02
2023-04-16T17:51:15.378Z,87.43
2023-04-16T17:55:16.793Z,89.40
2023-04-16T17:59:18.247Z,87.88
2023-04-16T18:03:21.800Z,87.68
2023-04-16T18:07:23.726Z,90.85
2023-04-16T18:11:25.164Z,88.97
2023-04-16T18:15:26.679Z,89.06
2023-04-16T18:19:28.415Z,89.81
2023-04-16T18:23:29.782Z,89.43
2023-04-16T18:27:31.160Z,92.34
2023-04-16T18:31:32.659Z,92.94
2023-04-16T18:35:34.117Z,93.76
2023-04-16T18:39:36.758Z,91.56
2023-04-16T18:43:38.141Z,94.27
2023-04-16T18:47:40.124Z,94.89
2023-04-16T18:51:42.059Z,96.06
2023-04-16T18:55:43.437Z,97.46
2023-04-16T18:59:44.863Z,95.48
2023-04-16T19:03:46.520Z,97.03
2023-04-16T19:07:47.952Z,96.87
2023-04-16T19:11:50.398Z,94.69
2023-04-16T19:15:55.775Z,94.47
2023-04-16T19:19:57.250Z,96.34
2023-04-16T19:23:58.728Z,97.01
2023-04-16T19:28:00.183Z,100.00
2023-04-16T19:32:02.463Z,100.00
2023-04-16T19:36:04.216Z,99.52
2023-04-16T19:40:06.619Z,100.00
2023-04-16T19:44:08.308Z,100.00
2023-04-16T19:48:09.776Z,100.00
2023-04-16T19:52:11.280Z,100.00
2023-04-16T19:56:14.062Z,100.00
2023-04-16T20:00:16.101Z,100.00
2023-04-16T20:04:17.514Z,100.00
2023-04-16T20:08:18.984Z,100.00
2023-04-16T20:12:20.486Z,100.00
2023-04-16T20:16:23.816Z,98.64
2023-04-16T20:20:25.456Z,98.63
2023-04-16T20:24:26.803Z,99.21
2023-04-16T20:28:28.189Z,100.00
2023-04-16T20:32:29.993Z,99.93
2023-04-16T20:36:31.818Z,98.72
2023-04-16T20:40:33.238Z,97.86
2023-04-16T20:44:40.383Z,97.15
2023-04-16T20:48:42.124Z,96.73
2023-04-16T20:52:43.550Z,96.29
2023-04-16T20:56:44.959Z,97.09
2023-04-16T21:00:52.587Z,96.97
2023-04-16T21:04:54.335Z,97.44
2023-04-16T21:08:56.036Z,96.93
2023-04-16T21:12:57.407Z,97.89
2023-04-16T21:16:58.774Z,97.53
2023-04-16T21:21:00.794Z,97.19
2023-04-16T21:25:02.613Z,97.87
2023-04-16T21:29:04.221Z,96.51
2023-04-16T21:33:05.672Z,95.52
2023-04-16T21:37:08.232Z,94.03
2023-04-16T21:41:09.634Z,95.04
2023-04-16T21:45:11.494Z,95.21
2023-04-16T21:49:13.179Z,95.45
2023-04-16T21:53:14.734Z,96.27
2023-04-16T21:57:16.239Z,97.64
2023-04-16T22:01:17.715Z,96.97
2023-04-16T22:05:19.960Z,97.21
2023-04-16T22:09:27.249Z,96.31
2023-04-16T22:13:30.088Z,95.91
2023-04-16T22:17:31.491Z,95.93
2023-04-16T22:21:32.910Z,96.16
2023-04-16T22:25:34.302Z,96.00
2023-04-16T22:29:35.674Z,94.98
2023-04-16T22:33:37.149Z,95.66
2023-04-16T22:37:38.588Z,95.50
2023-04-16T22:41:40.415Z,96.37
2023-04-16T22:45:43.003Z,95.86
2023-04-16T22:49:44.419Z,96.34
2023-04-16T22:53:45.773Z,97.45
2023-04-16T22:57:47.638Z,97.31
2023-04-16T23:01:49.508Z,100.00
2023-04-16T23:05:50.894Z,100.00
2023-04-16T23:09:52.270Z,100.00
2023-04-16T23:13:53.887Z,100.00
2023-04-16T23:17:55.756Z,100.00
2023-04-16T23:21:57.203Z,100.00
2023-04-16T23:25:58.627Z,100.00
2023-04-16T23:30:00.193Z,100.00
2023-04-16T23:34:01.623Z,100.00
2023-04-16T23:38:03.331Z,100.00
2023-04-16T23:42:04.713Z,100.00
2023-04-16T23:46:06.750Z,99.47
2023-04-16T23:50:08.252Z,100.00
2023-04-16T23:54:09.687Z,99.67
2023-04-16T23:58:11.428Z,100.00
